Terminal Aerodrome Forecast
Issued by NWS

Home | Current Version | Previous Version | Text Only | Print | Product List | Glossary On
Versions: 1 2 3 4 5 6 7 8 9 10 11 12 13 14 15 16 17 18 19 20 21 22 23 24 25 26 27 28 29 30 31 32 33 34 35 36 37
000
FTUS45 KBOU 012339
TAFBJC
TAF
KBJC 012339Z 0200/0224 VRB05KT P6SM BKN020 OVC035
     FM020200 VRB05KT P6SM SCT030 BKN045
     FM020500 30005KT P6SM SCT035 BKN100
     FM021000 VRB04KT P6SM VCFG FEW010 SCT100
     FM021500 VRB05KT P6SM FEW100 SCT220
     FM021800 09006KT P6SM SCT060 SCT220
     FM022300 11005KT P6SM FEW070 SCT220=

USA.gov is the U.S. government's official web portal to all federal, state and local government web resources and services.